sensor_id;sensor_type;location;lat;lon;timestamp;P1;durP1;ratioP1;P2;durP2;ratioP2
32146;SDS011;32190;49.112;8.598;2023-04-16T00:05:34;1.98;;;1.88;;
32146;SDS011;32190;49.112;8.598;2023-04-16T00:11:25;2.70;;;2.50;;
32146;SDS011;32190;49.112;8.598;2023-04-16T00:17:16;2.30;;;2.10;;
32146;SDS011;32190;49.112;8.598;2023-04-16T00:23:06;2.08;;;1.88;;
32146;SDS011;32190;49.112;8.598;2023-04-16T00:28:57;2.20;;;2.00;;
32146;SDS011;32190;49.112;8.598;2023-04-16T00:34:47;2.72;;;2.50;;
32146;SDS011;32190;49.112;8.598;2023-04-16T00:40:38;2.28;;;2.08;;
32146;SDS011;32190;49.112;8.598;2023-04-16T00:46:28;3.20;;;2.92;;
32146;SDS011;32190;49.112;8.598;2023-04-16T00:52:20;3.05;;;2.60;;
32146;SDS011;32190;49.112;8.598;2023-04-16T00:58:10;3.30;;;2.85;;
32146;SDS011;32190;49.112;8.598;2023-04-16T01:04:01;3.35;;;2.97;;
32146;SDS011;32190;49.112;8.598;2023-04-16T01:09:52;3.15;;;2.85;;
32146;SDS011;32190;49.112;8.598;2023-04-16T01:15:43;3.22;;;2.80;;
32146;SDS011;32190;49.112;8.598;2023-04-16T01:21:33;2.40;;;2.20;;
32146;SDS011;32190;49.112;8.598;2023-04-16T01:27:24;2.95;;;2.65;;
32146;SDS011;32190;49.112;8.598;2023-04-16T01:33:14;3.58;;;2.72;;
32146;SDS011;32190;49.112;8.598;2023-04-16T01:39:07;4.45;;;3.80;;
32146;SDS011;32190;49.112;8.598;2023-04-16T01:45:00;2.53;;;2.30;;
32146;SDS011;32190;49.112;8.598;2023-04-16T01:50:51;3.38;;;3.08;;
32146;SDS011;32190;49.112;8.598;2023-04-16T01:56:41;4.90;;;3.95;;
32146;SDS011;32190;49.112;8.598;2023-04-16T02:02:32;3.80;;;3.40;;
32146;SDS011;32190;49.112;8.598;2023-04-16T02:08:23;4.30;;;3.85;;
32146;SDS011;32190;49.112;8.598;2023-04-16T02:14:13;4.57;;;3.95;;
32146;SDS011;32190;49.112;8.598;2023-04-16T02:20:04;3.45;;;3.15;;
32146;SDS011;32190;49.112;8.598;2023-04-16T02:25:57;3.88;;;3.50;;
32146;SDS011;32190;49.112;8.598;2023-04-16T02:31:48;5.00;;;4.22;;
32146;SDS011;32190;49.112;8.598;2023-04-16T02:37:38;3.55;;;3.25;;
32146;SDS011;32190;49.112;8.598;2023-04-16T02:43:29;3.78;;;3.38;;
32146;SDS011;32190;49.112;8.598;2023-04-16T02:49:20;2.95;;;2.70;;
32146;SDS011;32190;49.112;8.598;2023-04-16T02:55:11;5.80;;;4.03;;
32146;SDS011;32190;49.112;8.598;2023-04-16T03:01:01;4.72;;;3.53;;
32146;SDS011;32190;49.112;8.598;2023-04-16T03:06:52;4.00;;;3.42;;
32146;SDS011;32190;49.112;8.598;2023-04-16T03:12:42;3.92;;;3.53;;
32146;SDS011;32190;49.112;8.598;2023-04-16T03:18:33;3.97;;;3.58;;
32146;SDS011;32190;49.112;8.598;2023-04-16T03:24:23;4.15;;;3.60;;
32146;SDS011;32190;49.112;8.598;2023-04-16T03:30:15;3.65;;;3.30;;
32146;SDS011;32190;49.112;8.598;2023-04-16T03:36:05;4.68;;;3.22;;
32146;SDS011;32190;49.112;8.598;2023-04-16T03:41:56;3.38;;;3.08;;
32146;SDS011;32190;49.112;8.598;2023-04-16T03:47:46;3.58;;;3.20;;
32146;SDS011;32190;49.112;8.598;2023-04-16T03:53:41;4.22;;;3.38;;
32146;SDS011;32190;49.112;8.598;2023-04-16T03:59:32;4.07;;;3.67;;
32146;SDS011;32190;49.112;8.598;2023-04-16T04:05:22;6.07;;;4.28;;
32146;SDS011;32190;49.112;8.598;2023-04-16T04:11:13;4.30;;;3.88;;
32146;SDS011;32190;49.112;8.598;2023-04-16T04:17:04;4.70;;;4.22;;
32146;SDS011;32190;49.112;8.598;2023-04-16T04:22:54;4.68;;;3.80;;
32146;SDS011;32190;49.112;8.598;2023-04-16T04:28:45;4.55;;;3.58;;
32146;SDS011;32190;49.112;8.598;2023-04-16T04:34:36;8.77;;;5.25;;
32146;SDS011;32190;49.112;8.598;2023-04-16T04:40:26;4.35;;;3.60;;
32146;SDS011;32190;49.112;8.598;2023-04-16T04:46:17;7.78;;;4.82;;
32146;SDS011;32190;49.112;8.598;2023-04-16T04:52:07;6.07;;;4.18;;
32146;SDS011;32190;49.112;8.598;2023-04-16T04:57:58;4.10;;;3.70;;
32146;SDS011;32190;49.112;8.598;2023-04-16T05:03:48;4.30;;;3.85;;
32146;SDS011;32190;49.112;8.598;2023-04-16T05:09:39;6.63;;;4.72;;
32146;SDS011;32190;49.112;8.598;2023-04-16T05:15:30;4.57;;;4.10;;
32146;SDS011;32190;49.112;8.598;2023-04-16T05:21:20;4.68;;;3.75;;
32146;SDS011;32190;49.112;8.598;2023-04-16T05:27:11;5.28;;;4.10;;
32146;SDS011;32190;49.112;8.598;2023-04-16T05:33:02;6.05;;;4.68;;
32146;SDS011;32190;49.112;8.598;2023-04-16T05:38:52;5.65;;;4.47;;
32146;SDS011;32190;49.112;8.598;2023-04-16T05:44:43;4.95;;;3.83;;
32146;SDS011;32190;49.112;8.598;2023-04-16T05:50:34;4.13;;;3.47;;
32146;SDS011;32190;49.112;8.598;2023-04-16T05:56:24;3.95;;;3.55;;
32146;SDS011;32190;49.112;8.598;2023-04-16T06:02:16;4.90;;;3.97;;
32146;SDS011;32190;49.112;8.598;2023-04-16T06:08:06;4.78;;;3.38;;
32146;SDS011;32190;49.112;8.598;2023-04-16T06:13:57;3.47;;;3.17;;
32146;SDS011;32190;49.112;8.598;2023-04-16T06:19:47;4.22;;;3.03;;
32146;SDS011;32190;49.112;8.598;2023-04-16T06:25:38;2.95;;;2.65;;
32146;SDS011;32190;49.112;8.598;2023-04-16T06:31:29;3.60;;;2.97;;
32146;SDS011;32190;49.112;8.598;2023-04-16T06:37:20;3.75;;;2.95;;
32146;SDS011;32190;49.112;8.598;2023-04-16T06:43:10;2.30;;;2.00;;
32146;SDS011;32190;49.112;8.598;2023-04-16T06:49:01;3.42;;;2.90;;
32146;SDS011;32190;49.112;8.598;2023-04-16T06:54:51;3.75;;;3.35;;
32146;SDS011;32190;49.112;8.598;2023-04-16T07:00:42;4.53;;;3.50;;
32146;SDS011;32190;49.112;8.598;2023-04-16T07:06:32;3.75;;;3.13;;
32146;SDS011;32190;49.112;8.598;2023-04-16T07:12:23;4.03;;;2.97;;
32146;SDS011;32190;49.112;8.598;2023-04-16T07:18:14;2.72;;;2.28;;
32146;SDS011;32190;49.112;8.598;2023-04-16T07:24:05;3.08;;;2.63;;
32146;SDS011;32190;49.112;8.598;2023-04-16T07:29:57;4.30;;;3.47;;
32146;SDS011;32190;49.112;8.598;2023-04-16T07:35:47;3.28;;;2.97;;
32146;SDS011;32190;49.112;8.598;2023-04-16T07:41:38;4.03;;;3.00;;
32146;SDS011;32190;49.112;8.598;2023-04-16T07:47:29;4.47;;;3.60;;
32146;SDS011;32190;49.112;8.598;2023-04-16T07:53:20;4.03;;;3.33;;
32146;SDS011;32190;49.112;8.598;2023-04-16T07:59:11;4.00;;;3.10;;
32146;SDS011;32190;49.112;8.598;2023-04-16T08:05:01;5.38;;;3.85;;
32146;SDS011;32190;49.112;8.598;2023-04-16T08:10:52;5.20;;;4.63;;
32146;SDS011;32190;49.112;8.598;2023-04-16T08:16:44;4.78;;;4.00;;
32146;SDS011;32190;49.112;8.598;2023-04-16T08:22:35;6.68;;;5.35;;
32146;SDS011;32190;49.112;8.598;2023-04-16T08:28:26;6.40;;;3.88;;
32146;SDS011;32190;49.112;8.598;2023-04-16T08:34:16;6.68;;;4.18;;
32146;SDS011;32190;49.112;8.598;2023-04-16T08:40:07;5.97;;;4.65;;
32146;SDS011;32190;49.112;8.598;2023-04-16T08:45:58;5.22;;;3.95;;
32146;SDS011;32190;49.112;8.598;2023-04-16T08:57:49;5.03;;;3.90;;
32146;SDS011;32190;49.112;8.598;2023-04-16T09:03:46;7.60;;;4.90;;
32146;SDS011;32190;49.112;8.598;2023-04-16T09:09:37;4.25;;;3.70;;
32146;SDS011;32190;49.112;8.598;2023-04-16T09:15:29;4.70;;;3.83;;
32146;SDS011;32190;49.112;8.598;2023-04-16T09:21:22;5.85;;;4.60;;
32146;SDS011;32190;49.112;8.598;2023-04-16T09:27:13;5.28;;;4.47;;
32146;SDS011;32190;49.112;8.598;2023-04-16T09:33:16;5.10;;;4.10;;
32146;SDS011;32190;49.112;8.598;2023-04-16T09:39:17;3.63;;;3.33;;
32146;SDS011;32190;49.112;8.598;2023-04-16T09:45:09;5.45;;;3.25;;
32146;SDS011;32190;49.112;8.598;2023-04-16T09:51:00;4.22;;;3.38;;
32146;SDS011;32190;49.112;8.598;2023-04-16T09:56:50;5.75;;;3.60;;
32146;SDS011;32190;49.112;8.598;2023-04-16T10:02:46;3.92;;;3.40;;
32146;SDS011;32190;49.112;8.598;2023-04-16T10:08:36;4.47;;;3.33;;
32146;SDS011;32190;49.112;8.598;2023-04-16T10:14:31;4.53;;;3.35;;
32146;SDS011;32190;49.112;8.598;2023-04-16T10:20:25;5.10;;;3.67;;
32146;SDS011;32190;49.112;8.598;2023-04-16T10:26:16;5.55;;;3.75;;
32146;SDS011;32190;49.112;8.598;2023-04-16T10:32:07;4.32;;;3.05;;
32146;SDS011;32190;49.112;8.598;2023-04-16T10:38:19;5.80;;;4.07;;
32146;SDS011;32190;49.112;8.598;2023-04-16T10:44:16;5.30;;;4.05;;
32146;SDS011;32190;49.112;8.598;2023-04-16T10:50:14;5.80;;;4.03;;
32146;SDS011;32190;49.112;8.598;2023-04-16T11:02:00;3.17;;;2.78;;
32146;SDS011;32190;49.112;8.598;2023-04-16T11:07:56;3.80;;;2.67;;
32146;SDS011;32190;49.112;8.598;2023-04-16T11:14:03;5.03;;;4.50;;
32146;SDS011;32190;49.112;8.598;2023-04-16T11:19:54;4.57;;;3.33;;
32146;SDS011;32190;49.112;8.598;2023-04-16T11:25:45;4.78;;;3.40;;
32146;SDS011;32190;49.112;8.598;2023-04-16T11:31:35;4.28;;;2.92;;
32146;SDS011;32190;49.112;8.598;2023-04-16T11:37:33;3.63;;;3.05;;
32146;SDS011;32190;49.112;8.598;2023-04-16T11:43:25;5.05;;;3.33;;
32146;SDS011;32190;49.112;8.598;2023-04-16T11:49:15;4.03;;;3.58;;
32146;SDS011;32190;49.112;8.598;2023-04-16T11:55:06;3.92;;;3.50;;
32146;SDS011;32190;49.112;8.598;2023-04-16T12:00:57;2.97;;;2.67;;
32146;SDS011;32190;49.112;8.598;2023-04-16T12:07:08;3.47;;;2.80;;
32146;SDS011;32190;49.112;8.598;2023-04-16T12:13:13;3.13;;;2.72;;
32146;SDS011;32190;49.112;8.598;2023-04-16T12:19:05;2.67;;;2.47;;
32146;SDS011;32190;49.112;8.598;2023-04-16T12:25:20;4.15;;;3.78;;
32146;SDS011;32190;49.112;8.598;2023-04-16T12:31:13;3.58;;;3.20;;
32146;SDS011;32190;49.112;8.598;2023-04-16T12:37:05;3.75;;;3.30;;
32146;SDS011;32190;49.112;8.598;2023-04-16T12:42:58;3.78;;;3.33;;
32146;SDS011;32190;49.112;8.598;2023-04-16T12:48:48;5.25;;;3.92;;
32146;SDS011;32190;49.112;8.598;2023-04-16T12:54:39;3.85;;;3.47;;
32146;SDS011;32190;49.112;8.598;2023-04-16T13:00:30;4.03;;;3.55;;
32146;SDS011;32190;49.112;8.598;2023-04-16T13:06:21;5.95;;;3.47;;
32146;SDS011;32190;49.112;8.598;2023-04-16T13:12:11;3.28;;;2.85;;
32146;SDS011;32190;49.112;8.598;2023-04-16T13:18:02;5.03;;;3.85;;
32146;SDS011;32190;49.112;8.598;2023-04-16T13:23:53;4.45;;;3.75;;
32146;SDS011;32190;49.112;8.598;2023-04-16T13:29:43;3.92;;;3.53;;
32146;SDS011;32190;49.112;8.598;2023-04-16T13:35:34;6.18;;;4.13;;
32146;SDS011;32190;49.112;8.598;2023-04-16T13:41:25;4.72;;;3.90;;
32146;SDS011;32190;49.112;8.598;2023-04-16T13:47:15;4.47;;;3.50;;
32146;SDS011;32190;49.112;8.598;2023-04-16T13:53:06;7.20;;;4.93;;
32146;SDS011;32190;49.112;8.598;2023-04-16T13:58:56;5.38;;;4.45;;
32146;SDS011;32190;49.112;8.598;2023-04-16T14:04:47;8.57;;;5.25;;
32146;SDS011;32190;49.112;8.598;2023-04-16T14:10:38;8.57;;;4.43;;
32146;SDS011;32190;49.112;8.598;2023-04-16T14:16:28;5.85;;;4.82;;
32146;SDS011;32190;49.112;8.598;2023-04-16T14:22:19;5.93;;;4.78;;
32146;SDS011;32190;49.112;8.598;2023-04-16T14:28:10;5.47;;;4.43;;
32146;SDS011;32190;49.112;8.598;2023-04-16T14:34:00;6.68;;;4.63;;
32146;SDS011;32190;49.112;8.598;2023-04-16T14:39:51;5.72;;;4.38;;
32146;SDS011;32190;49.112;8.598;2023-04-16T14:45:43;7.72;;;5.75;;
32146;SDS011;32190;49.112;8.598;2023-04-16T14:51:33;4.68;;;3.88;;
32146;SDS011;32190;49.112;8.598;2023-04-16T14:57:24;7.30;;;4.85;;
32146;SDS011;32190;49.112;8.598;2023-04-16T15:03:15;7.30;;;5.22;;
32146;SDS011;32190;49.112;8.598;2023-04-16T15:09:06;7.70;;;6.15;;
32146;SDS011;32190;49.112;8.598;2023-04-16T15:14:56;9.18;;;5.93;;
32146;SDS011;32190;49.112;8.598;2023-04-16T15:20:48;8.77;;;6.22;;
32146;SDS011;32190;49.112;8.598;2023-04-16T15:26:40;10.80;;;6.60;;
32146;SDS011;32190;49.112;8.598;2023-04-16T15:32:30;8.30;;;6.30;;
32146;SDS011;32190;49.112;8.598;2023-04-16T15:38:21;8.73;;;6.05;;
32146;SDS011;32190;49.112;8.598;2023-04-16T15:44:12;8.82;;;6.07;;
32146;SDS011;32190;49.112;8.598;2023-04-16T15:50:02;8.18;;;6.28;;
32146;SDS011;32190;49.112;8.598;2023-04-16T15:55:53;7.63;;;5.53;;
32146;SDS011;32190;49.112;8.598;2023-04-16T16:01:44;9.93;;;6.53;;
32146;SDS011;32190;49.112;8.598;2023-04-16T16:07:34;8.20;;;5.97;;
32146;SDS011;32190;49.112;8.598;2023-04-16T16:13:25;8.38;;;6.18;;
32146;SDS011;32190;49.112;8.598;2023-04-16T16:19:16;8.38;;;6.10;;
32146;SDS011;32190;49.112;8.598;2023-04-16T16:25:07;10.18;;;7.25;;
32146;SDS011;32190;49.112;8.598;2023-04-16T16:30:59;9.00;;;6.78;;
32146;SDS011;32190;49.112;8.598;2023-04-16T16:36:50;9.52;;;6.38;;
32146;SDS011;32190;49.112;8.598;2023-04-16T16:42:40;7.65;;;5.80;;
32146;SDS011;32190;49.112;8.598;2023-04-16T16:48:31;7.70;;;5.53;;
32146;SDS011;32190;49.112;8.598;2023-04-16T16:54:22;6.45;;;4.38;;
32146;SDS011;32190;49.112;8.598;2023-04-16T17:00:13;6.03;;;4.93;;
32146;SDS011;32190;49.112;8.598;2023-04-16T17:06:04;5.03;;;4.13;;
32146;SDS011;32190;49.112;8.598;2023-04-16T17:11:55;9.90;;;5.55;;
32146;SDS011;32190;49.112;8.598;2023-04-16T17:17:46;5.10;;;3.60;;
32146;SDS011;32190;49.112;8.598;2023-04-16T17:23:37;7.10;;;5.28;;
32146;SDS011;32190;49.112;8.598;2023-04-16T17:29:28;6.20;;;5.05;;
32146;SDS011;32190;49.112;8.598;2023-04-16T17:35:19;5.68;;;4.65;;
32146;SDS011;32190;49.112;8.598;2023-04-16T17:41:10;6.18;;;4.25;;
32146;SDS011;32190;49.112;8.598;2023-04-16T17:47:01;6.82;;;4.82;;
32146;SDS011;32190;49.112;8.598;2023-04-16T17:52:51;5.90;;;4.80;;
32146;SDS011;32190;49.112;8.598;2023-04-16T17:58:42;7.47;;;4.93;;
32146;SDS011;32190;49.112;8.598;2023-04-16T18:04:32;5.05;;;4.28;;
32146;SDS011;32190;49.112;8.598;2023-04-16T18:10:23;8.00;;;4.85;;
32146;SDS011;32190;49.112;8.598;2023-04-16T18:16:14;7.53;;;5.80;;
32146;SDS011;32190;49.112;8.598;2023-04-16T18:22:05;9.77;;;5.70;;
32146;SDS011;32190;49.112;8.598;2023-04-16T18:27:56;7.45;;;5.53;;
32146;SDS011;32190;49.112;8.598;2023-04-16T18:33:47;5.50;;;4.35;;
32146;SDS011;32190;49.112;8.598;2023-04-16T18:39:38;6.55;;;4.80;;
32146;SDS011;32190;49.112;8.598;2023-04-16T18:45:29;5.60;;;4.55;;
32146;SDS011;32190;49.112;8.598;2023-04-16T18:51:19;6.82;;;5.55;;
32146;SDS011;32190;49.112;8.598;2023-04-16T18:57:10;5.20;;;4.13;;
32146;SDS011;32190;49.112;8.598;2023-04-16T19:03:00;7.32;;;5.97;;
32146;SDS011;32190;49.112;8.598;2023-04-16T19:08:54;6.15;;;5.00;;
32146;SDS011;32190;49.112;8.598;2023-04-16T19:14:45;6.07;;;4.63;;
32146;SDS011;32190;49.112;8.598;2023-04-16T19:20:35;4.18;;;3.20;;
32146;SDS011;32190;49.112;8.598;2023-04-16T19:26:26;6.63;;;5.30;;
32146;SDS011;32190;49.112;8.598;2023-04-16T19:32:17;5.25;;;4.25;;
32146;SDS011;32190;49.112;8.598;2023-04-16T19:38:07;6.82;;;4.20;;
32146;SDS011;32190;49.112;8.598;2023-04-16T19:43:58;6.68;;;4.65;;
32146;SDS011;32190;49.112;8.598;2023-04-16T19:49:49;4.80;;;4.35;;
32146;SDS011;32190;49.112;8.598;2023-04-16T19:55:40;5.65;;;4.20;;
32146;SDS011;32190;49.112;8.598;2023-04-16T20:01:31;4.97;;;4.47;;
32146;SDS011;32190;49.112;8.598;2023-04-16T20:07:22;4.28;;;2.97;;
32146;SDS011;32190;49.112;8.598;2023-04-16T20:13:12;4.95;;;3.58;;
32146;SDS011;32190;49.112;8.598;2023-04-16T20:19:03;5.05;;;4.30;;
32146;SDS011;32190;49.112;8.598;2023-04-16T20:24:54;5.20;;;4.32;;
32146;SDS011;32190;49.112;8.598;2023-04-16T20:30:45;6.55;;;4.93;;
32146;SDS011;32190;49.112;8.598;2023-04-16T20:36:35;6.63;;;5.50;;
32146;SDS011;32190;49.112;8.598;2023-04-16T20:42:26;6.18;;;4.60;;
32146;SDS011;32190;49.112;8.598;2023-04-16T20:48:21;4.07;;;3.55;;
32146;SDS011;32190;49.112;8.598;2023-04-16T20:54:11;6.13;;;4.72;;
32146;SDS011;32190;49.112;8.598;2023-04-16T21:00:02;5.50;;;4.75;;
32146;SDS011;32190;49.112;8.598;2023-04-16T21:05:55;5.00;;;4.45;;
32146;SDS011;32190;49.112;8.598;2023-04-16T21:11:45;6.55;;;4.60;;
32146;SDS011;32190;49.112;8.598;2023-04-16T21:17:36;6.38;;;5.15;;
32146;SDS011;32190;49.112;8.598;2023-04-16T21:23:27;9.48;;;7.18;;
32146;SDS011;32190;49.112;8.598;2023-04-16T21:29:17;7.40;;;5.88;;
32146;SDS011;32190;49.112;8.598;2023-04-16T21:35:08;9.18;;;5.63;;
32146;SDS011;32190;49.112;8.598;2023-04-16T21:40:59;8.02;;;5.30;;
32146;SDS011;32190;49.112;8.598;2023-04-16T21:46:51;7.10;;;6.15;;
32146;SDS011;32190;49.112;8.598;2023-04-16T21:52:42;5.97;;;4.60;;
32146;SDS011;32190;49.112;8.598;2023-04-16T21:58:35;5.35;;;4.07;;
32146;SDS011;32190;49.112;8.598;2023-04-16T22:04:25;7.03;;;5.65;;
32146;SDS011;32190;49.112;8.598;2023-04-16T22:10:25;7.03;;;5.38;;
32146;SDS011;32190;49.112;8.598;2023-04-16T22:16:16;8.50;;;5.03;;
32146;SDS011;32190;49.112;8.598;2023-04-16T22:22:07;4.80;;;3.88;;
32146;SDS011;32190;49.112;8.598;2023-04-16T22:27:58;4.22;;;3.70;;
32146;SDS011;32190;49.112;8.598;2023-04-16T22:33:50;5.57;;;4.32;;
32146;SDS011;32190;49.112;8.598;2023-04-16T22:39:40;5.15;;;3.80;;
32146;SDS011;32190;49.112;8.598;2023-04-16T22:45:31;6.88;;;5.38;;
32146;SDS011;32190;49.112;8.598;2023-04-16T22:51:21;3.67;;;3.25;;
32146;SDS011;32190;49.112;8.598;2023-04-16T22:57:13;5.18;;;4.25;;
32146;SDS011;32190;49.112;8.598;2023-04-16T23:03:06;3.40;;;3.10;;
32146;SDS011;32190;49.112;8.598;2023-04-16T23:08:56;4.18;;;3.78;;
32146;SDS011;32190;49.112;8.598;2023-04-16T23:14:47;4.32;;;3.58;;
32146;SDS011;32190;49.112;8.598;2023-04-16T23:20:37;5.55;;;4.63;;
32146;SDS011;32190;49.112;8.598;2023-04-16T23:26:28;4.78;;;4.20;;
32146;SDS011;32190;49.112;8.598;2023-04-16T23:32:19;5.03;;;4.43;;
32146;SDS011;32190;49.112;8.598;2023-04-16T23:38:09;5.10;;;3.70;;
32146;SDS011;32190;49.112;8.598;2023-04-16T23:44:00;5.25;;;4.45;;
32146;SDS011;32190;49.112;8.598;2023-04-16T23:49:51;4.40;;;4.00;;
32146;SDS011;32190;49.112;8.598;2023-04-16T23:55:41;3.47;;;2.90;;
